Thackerville, OK (73459)

10:35 PM CDT on July 28, 2016 (GMT -0500)
Gainesville | | Change Station

Elev 829 ft 33.68 °N, 97.17 °W | Updated 10 seconds ago

Clear
Clear
81.1 °F
Feels Like 85 °F
N
7.0
Wind Variable Wind from South
Gusts 11.0 mph

Today
High -- | Low -- °F
--% Chance of Precip.
Yesterday
High -- | Low -- °F
Precip. -- in
Pressure 29.96 in
Visibility 10.0 miles
Clouds Clear
Heat Index 85 °F
Dew Point 72 °F
Humidity 73%
Rainfall 0.00 in
Snow Depth Not available.
6:37 AM 8:31 PM
Waning Crescent, 26% visible
METAR KGLE 290315Z AUTO 18006KT 10SM CLR 27/21 A2996 RMK AO2 T02680210
Pressure 29.96 in
Visibility 10.0 miles
Clouds Clear
Heat Index 85 °F
Dew Point 72 °F
Humidity 73%
Rainfall 0.00 in
Snow Depth Not available.
6:37 AM 8:31 PM
Waning Crescent, 26% visible
METAR KGLE 290315Z AUTO 18006KT 10SM CLR 27/21 A2996 RMK AO2 T02680210

10-Day Weather Forecast

Almanac

Astronomy

Jul. 28, 2016 Rise Set
Actual Time
Civil Twilight
Nautical Twilight
Astronomical Twilight
Moon
Length of Visible Light
Length of Day
Tomorrow will be .
, % of the Moon is Illuminated

Today's Extremes

State Highs State Lows

Community

WunderPhotos

Upload Photos

1,928,286 photos uploaded!

WunderBlog® & News

Nearby

Air Quality

  Air Quality AQ Index Pollutant
Not available.

Snow Depth

Station Depth Elevation

Earthquake Activity

City Distance Mag. Time & Date
Minimum magnitude displayed is 2.5.

Coastal Water Temperatures

Place Temperature

Stations

Nearby Weather Stations

Station Location Temp. Windchill Dew Point Humidity Wind Precip. Elev Updated Type
                   

Watches & Warnings

There are currently no watches in effect.